createdAt,value
2017-08-01T00:01:22.057Z,25.37
2017-08-01T00:03:53.876Z,25.35
2017-08-01T00:06:25.367Z,25.34
2017-08-01T00:08:56.833Z,25.31
2017-08-01T00:11:28.252Z,25.22
2017-08-01T00:13:59.691Z,25.19
2017-08-01T00:16:31.077Z,25.25
2017-08-01T00:19:02.352Z,25.26
2017-08-01T00:21:34.120Z,25.25
2017-08-01T00:24:05.979Z,25.24
2017-08-01T00:26:37.335Z,25.15
2017-08-01T00:29:08.651Z,25.07
2017-08-01T00:31:40.013Z,24.96
2017-08-01T00:34:11.327Z,24.90
2017-08-01T00:36:42.914Z,24.81
2017-08-01T00:39:14.229Z,24.67
2017-08-01T00:41:45.589Z,24.56
2017-08-01T00:44:16.868Z,24.45
2017-08-01T00:46:48.339Z,24.37
2017-08-01T00:49:19.706Z,24.19
2017-08-01T00:51:51.451Z,24.14
2017-08-01T00:54:23.069Z,24.13
2017-08-01T00:56:54.430Z,24.12
2017-08-01T00:59:25.549Z,24.16
2017-08-01T01:01:56.744Z,24.15
2017-08-01T01:04:27.713Z,24.13
2017-08-01T01:06:59.189Z,24.15
2017-08-01T01:09:30.197Z,24.13
2017-08-01T01:12:02.083Z,24.14
2017-08-01T01:14:33.807Z,24.23
2017-08-01T01:17:05.203Z,24.33
2017-08-01T01:19:36.217Z,24.34
2017-08-01T01:22:07.692Z,24.39
2017-08-01T01:24:38.697Z,24.47
2017-08-01T01:27:09.730Z,24.49
2017-08-01T01:29:40.758Z,24.53
2017-08-01T01:32:11.837Z,24.53
2017-08-01T01:34:42.943Z,24.55
2017-08-01T01:37:14.292Z,24.54
2017-08-01T01:39:45.373Z,24.56
2017-08-01T01:42:16.449Z,24.57
2017-08-01T01:44:47.844Z,24.61
2017-08-01T01:47:18.886Z,24.59
2017-08-01T01:49:49.906Z,24.54
2017-08-01T01:52:21.324Z,24.54
2017-08-01T01:54:52.405Z,24.53
2017-08-01T01:57:23.418Z,24.51
2017-08-01T01:59:54.429Z,24.52
2017-08-01T02:02:25.521Z,24.51
2017-08-01T02:04:56.565Z,24.53
2017-08-01T02:07:27.857Z,24.53
2017-08-01T02:09:58.850Z,24.43
2017-08-01T02:12:29.915Z,24.32
2017-08-01T02:15:01.017Z,24.24
2017-08-01T02:17:32.157Z,24.29
2017-08-01T02:20:03.910Z,24.27
2017-08-01T02:22:35.402Z,24.24
2017-08-01T02:25:06.843Z,24.25
2017-08-01T02:27:37.881Z,24.17
2017-08-01T02:30:08.998Z,24.15
2017-08-01T02:32:40.052Z,24.08
2017-08-01T02:35:11.127Z,24.03
2017-08-01T02:37:42.474Z,23.99
2017-08-01T02:40:13.493Z,24.03
2017-08-01T02:42:44.481Z,24.03
2017-08-01T02:45:15.440Z,24.01
2017-08-01T02:47:46.458Z,24.06
2017-08-01T02:50:17.450Z,24.03
2017-08-01T02:52:48.824Z,23.98
2017-08-01T02:55:19.815Z,23.96
2017-08-01T02:57:50.845Z,23.93
2017-08-01T03:00:21.860Z,23.83
2017-08-01T03:02:52.854Z,23.77
2017-08-01T03:05:23.881Z,23.69
2017-08-01T03:07:55.332Z,23.67
2017-08-01T03:10:26.381Z,23.53
2017-08-01T03:12:57.386Z,23.41
2017-08-01T03:15:28.501Z,23.32
2017-08-01T03:17:59.554Z,23.24
2017-08-01T03:20:30.690Z,23.18
2017-08-01T03:23:02.172Z,23.12
2017-08-01T03:25:33.234Z,23.12
2017-08-01T03:28:04.894Z,23.08
2017-08-01T03:30:36.346Z,22.89
2017-08-01T03:33:07.393Z,23.01
2017-08-01T03:35:38.479Z,23.08
2017-08-01T03:38:09.976Z,23.13
2017-08-01T03:40:40.994Z,23.06
2017-08-01T03:43:12.142Z,22.99
2017-08-01T03:45:43.177Z,22.88
2017-08-01T03:48:14.190Z,22.85
2017-08-01T03:50:45.151Z,22.81
2017-08-01T03:53:16.619Z,22.78
2017-08-01T03:55:48.113Z,22.77
2017-08-01T03:58:19.432Z,22.71
2017-08-01T04:00:50.905Z,22.73
2017-08-01T04:03:21.917Z,22.71
2017-08-01T04:05:52.978Z,22.69
2017-08-01T04:08:24.374Z,22.69
2017-08-01T04:10:55.640Z,22.69
2017-08-01T04:13:26.676Z,22.62
2017-08-01T04:15:57.716Z,22.58
2017-08-01T04:18:28.917Z,22.54
2017-08-01T04:20:59.926Z,22.58
2017-08-01T04:23:31.304Z,22.61
2017-08-01T04:26:02.829Z,22.61
2017-08-01T04:28:33.825Z,22.61
2017-08-01T04:31:04.901Z,22.64
2017-08-01T04:33:35.949Z,22.70
2017-08-01T04:36:07.089Z,22.76
2017-08-01T04:38:38.571Z,22.78
2017-08-01T04:41:09.569Z,22.80
2017-08-01T04:43:40.597Z,22.82
2017-08-01T04:46:11.625Z,22.83
2017-08-01T04:48:42.626Z,22.83
2017-08-01T04:51:13.632Z,22.87
2017-08-01T04:53:45.085Z,22.85
2017-08-01T04:56:16.094Z,22.94
2017-08-01T05:01:16.938Z,23.18
2017-08-01T05:03:48.104Z,23.25
2017-08-01T05:06:19.425Z,23.38
2017-08-01T05:08:50.402Z,23.48
2017-08-01T05:11:21.376Z,23.52
2017-08-01T05:13:52.681Z,23.51
2017-08-01T05:16:23.669Z,23.61
2017-08-01T05:18:54.774Z,23.73
2017-08-01T05:21:25.828Z,23.84
2017-08-01T05:23:57.269Z,23.92
2017-08-01T05:26:28.266Z,23.94
2017-08-01T05:28:59.253Z,23.94
2017-08-01T05:31:30.241Z,23.96
2017-08-01T05:34:01.393Z,23.91
2017-08-01T05:36:32.473Z,23.69
2017-08-01T05:39:04.264Z,23.87
2017-08-01T05:41:35.293Z,24.01
2017-08-01T05:44:06.344Z,24.19
2017-08-01T05:46:37.345Z,24.43
2017-08-01T05:49:08.365Z,24.59
2017-08-01T05:51:39.378Z,24.67
2017-08-01T05:54:13.023Z,24.65
2017-08-01T05:56:44.034Z,24.48
2017-08-01T05:59:15.385Z,24.48
2017-08-01T06:01:46.417Z,24.43
2017-08-01T06:04:17.437Z,24.26
2017-08-01T06:06:48.787Z,24.37
2017-08-01T06:09:19.772Z,24.42
2017-08-01T06:11:50.762Z,24.78
2017-08-01T06:14:22.403Z,24.95
2017-08-01T06:16:53.609Z,24.99
2017-08-01T06:19:26.437Z,25.22
2017-08-01T06:21:57.722Z,24.84
2017-08-01T06:24:29.119Z,25.14
2017-08-01T06:27:00.105Z,25.03
2017-08-01T06:29:31.277Z,24.92
2017-08-01T06:32:07.545Z,25.09
2017-08-01T06:34:57.514Z,25.07
2017-08-01T06:37:30.734Z,25.18
2017-08-01T06:40:21.145Z,25.29
2017-08-01T06:42:55.089Z,25.32
2017-08-01T06:45:28.390Z,25.61
2017-08-01T06:53:37.006Z,25.72
2017-08-01T06:56:09.791Z,25.86
2017-08-01T06:58:42.086Z,25.96
2017-08-01T07:01:13.153Z,26.13
2017-08-01T07:03:44.558Z,26.14
2017-08-01T07:06:17.544Z,26.18
2017-08-01T07:08:48.647Z,26.13
2017-08-01T07:11:20.021Z,26.27
2017-08-01T07:13:51.118Z,26.39
2017-08-01T07:16:23.069Z,26.59
2017-08-01T07:18:54.448Z,26.68
2017-08-01T07:21:25.545Z,26.57
2017-08-01T07:23:56.920Z,26.55
2017-08-01T07:26:27.997Z,26.48
2017-08-01T07:28:59.088Z,26.59
2017-08-01T07:31:31.553Z,26.76
2017-08-01T07:34:07.382Z,26.90
2017-08-01T07:36:39.587Z,27.11
2017-08-01T07:39:11.201Z,27.36
2017-08-01T07:41:42.322Z,27.41
2017-08-01T07:44:18.583Z,27.24
2017-08-01T07:46:49.647Z,27.55
2017-08-01T07:49:21.051Z,27.88
2017-08-01T07:51:52.175Z,27.76
2017-08-01T07:54:24.638Z,27.86
2017-08-01T07:59:34.031Z,27.79
2017-08-01T08:02:08.676Z,28.15
2017-08-01T08:04:39.905Z,28.23
2017-08-01T08:07:11.061Z,28.59
2017-08-01T08:09:42.171Z,28.72
2017-08-01T08:12:15.842Z,28.90
2017-08-01T08:14:47.144Z,28.94
2017-08-01T08:17:18.376Z,29.04
2017-08-01T08:19:50.737Z,28.96
2017-08-01T08:22:21.828Z,29.08
2017-08-01T08:24:52.861Z,29.09
2017-08-01T08:27:23.878Z,29.06
2017-08-01T08:29:54.954Z,29.24
2017-08-01T08:32:25.973Z,29.57
2017-08-01T08:34:57.315Z,29.53
2017-08-01T08:37:28.433Z,29.91
2017-08-01T08:39:59.489Z,29.68
2017-08-01T08:42:30.845Z,29.51
2017-08-01T08:45:03.293Z,29.40
2017-08-01T08:47:45.475Z,29.43
2017-08-01T08:53:12.129Z,29.51
2017-08-01T08:55:43.244Z,29.35
2017-08-01T08:58:16.154Z,29.55
2017-08-01T09:00:47.246Z,29.35
2017-08-01T09:03:18.705Z,28.95
2017-08-01T09:05:49.925Z,28.67
2017-08-01T09:08:21.265Z,28.73
2017-08-01T09:10:53.497Z,28.65
2017-08-01T09:13:24.607Z,28.61
2017-08-01T09:15:55.707Z,28.85
2017-08-01T09:18:27.128Z,29.02
2017-08-01T09:20:58.242Z,29.30
2017-08-01T09:23:29.313Z,29.58
2017-08-01T09:26:00.756Z,29.88
2017-08-01T09:28:32.061Z,30.43
2017-08-01T09:31:03.152Z,30.69
2017-08-01T09:33:34.529Z,30.61
2017-08-01T09:36:06.975Z,30.58
2017-08-01T09:38:38.197Z,31.15
2017-08-01T09:41:09.567Z,31.38
2017-08-01T09:43:40.675Z,31.42
2017-08-01T09:46:11.907Z,31.30
2017-08-01T09:48:43.277Z,31.52
2017-08-01T09:51:14.375Z,31.73
2017-08-01T09:53:45.740Z,31.47
2017-08-01T09:56:18.007Z,31.30
2017-08-01T09:58:49.110Z,31.29
2017-08-01T10:01:20.288Z,31.31
2017-08-01T10:03:51.721Z,31.37
2017-08-01T10:06:22.933Z,31.47
2017-08-01T10:08:54.047Z,31.68
2017-08-01T10:11:25.497Z,31.71
2017-08-01T10:13:56.657Z,31.94
2017-08-01T10:16:27.832Z,32.03
2017-08-01T10:18:59.256Z,32.25
2017-08-01T10:21:30.303Z,32.29
2017-08-01T10:24:03.191Z,32.47
2017-08-01T10:26:34.713Z,32.38
2017-08-01T10:29:05.838Z,32.15
2017-08-01T10:31:36.972Z,32.78
2017-08-01T10:34:08.576Z,33.12
2017-08-01T10:36:39.674Z,32.93
2017-08-01T10:39:10.763Z,32.44
2017-08-01T10:41:42.204Z,32.31
2017-08-01T10:44:13.594Z,32.68
2017-08-01T10:46:44.755Z,33.15
2017-08-01T10:49:15.891Z,33.58
2017-08-01T10:51:47.459Z,34.07
2017-08-01T10:54:19.092Z,34.28
2017-08-01T10:56:50.231Z,34.58
2017-08-01T10:59:23.066Z,34.56
2017-08-01T11:01:54.226Z,34.60
2017-08-01T11:04:25.421Z,34.24
2017-08-01T11:06:56.956Z,33.80
2017-08-01T11:09:28.905Z,33.32
2017-08-01T11:12:00.648Z,33.28
2017-08-01T11:14:31.756Z,33.29
2017-08-01T11:17:04.096Z,33.92
2017-08-01T11:19:35.535Z,33.90
2017-08-01T11:22:08.985Z,33.78
2017-08-01T11:24:40.408Z,34.07
2017-08-01T11:27:11.851Z,33.96
2017-08-01T11:29:43.937Z,34.15
2017-08-01T11:32:18.919Z,34.51
2017-08-01T11:34:50.070Z,35.44
2017-08-01T11:37:21.583Z,36.10
2017-08-01T11:39:52.869Z,35.93
2017-08-01T11:42:24.009Z,35.70
2017-08-01T11:44:55.836Z,35.44
2017-08-01T11:47:26.963Z,35.57
2017-08-01T11:49:58.060Z,35.74
2017-08-01T11:52:30.819Z,35.78
2017-08-01T11:55:05.097Z,35.99
2017-08-01T11:57:38.155Z,35.76
2017-08-01T12:03:04.360Z,34.34
2017-08-01T12:05:35.626Z,34.18
2017-08-01T12:08:08.618Z,34.31
2017-08-01T12:10:39.692Z,34.78
2017-08-01T12:13:11.350Z,35.23
2017-08-01T12:15:42.389Z,35.51
2017-08-01T12:18:13.863Z,35.36
2017-08-01T12:20:45.200Z,35.78
2017-08-01T12:23:16.406Z,36.44
2017-08-01T12:25:47.460Z,36.73
2017-08-01T12:30:45.117Z,36.34
2017-08-01T12:33:16.142Z,36.57
2017-08-01T12:35:47.463Z,36.69
2017-08-01T12:38:18.502Z,36.77
2017-08-01T12:40:50.272Z,36.24
2017-08-01T12:43:21.277Z,36.02
2017-08-01T12:45:52.338Z,35.39
2017-08-01T12:48:23.628Z,35.39
2017-08-01T12:50:54.656Z,35.10
2017-08-01T12:53:25.680Z,34.74
2017-08-01T12:55:57.059Z,34.30
2017-08-01T12:58:28.149Z,33.75
2017-08-01T13:00:59.472Z,32.95
2017-08-01T13:03:30.508Z,32.47
2017-08-01T13:06:02.682Z,32.14
2017-08-01T13:08:33.692Z,31.83
2017-08-01T13:11:04.759Z,31.74
2017-08-01T13:13:35.783Z,31.66
2017-08-01T13:16:06.850Z,31.47
2017-08-01T13:18:38.327Z,31.27
2017-08-01T13:24:09.121Z,30.75
2017-08-01T13:26:40.172Z,30.73
2017-08-01T13:29:11.734Z,30.65
2017-08-01T13:31:42.794Z,30.55
2017-08-01T13:34:13.865Z,30.48
2017-08-01T13:36:45.093Z,30.58
2017-08-01T13:39:16.146Z,30.45
2017-08-01T13:41:47.527Z,30.28
2017-08-01T13:44:18.661Z,30.08
2017-08-01T13:46:49.726Z,29.83
2017-08-01T13:49:21.322Z,29.64
2017-08-01T13:51:55.001Z,29.54
2017-08-01T13:54:33.839Z,29.69
2017-08-01T13:57:06.298Z,30.08
2017-08-01T13:59:39.652Z,30.31
2017-08-01T14:02:12.798Z,30.41
2017-08-01T14:04:44.759Z,30.38
2017-08-01T14:07:15.890Z,30.33
2017-08-01T14:09:47.419Z,30.42
2017-08-01T14:12:18.534Z,30.43
2017-08-01T14:14:49.714Z,30.40
2017-08-01T14:17:21.049Z,30.36
2017-08-01T14:19:52.234Z,30.26
2017-08-01T14:22:23.297Z,30.22
2017-08-01T14:24:54.671Z,30.25
2017-08-01T14:27:25.773Z,30.14
2017-08-01T14:29:57.371Z,30.19
2017-08-01T14:32:28.457Z,30.47
2017-08-01T14:34:59.700Z,30.62
2017-08-01T14:37:31.012Z,30.77
2017-08-01T14:40:04.020Z,30.91
2017-08-01T14:42:35.300Z,30.91
2017-08-01T14:45:06.788Z,30.97
2017-08-01T14:47:37.944Z,30.92
2017-08-01T14:50:09.290Z,30.86
2017-08-01T14:52:40.349Z,30.93
2017-08-01T14:55:11.370Z,31.37
2017-08-01T14:57:45.217Z,31.57
2017-08-01T15:00:16.586Z,31.46
2017-08-01T15:02:47.630Z,31.18
2017-08-01T15:05:18.966Z,30.88
2017-08-01T15:07:50.030Z,30.61
2017-08-01T15:10:21.553Z,30.31
2017-08-01T15:12:52.683Z,30.05
2017-08-01T15:15:23.903Z,29.75
2017-08-01T15:17:56.263Z,29.46
2017-08-01T15:20:27.351Z,29.24
2017-08-01T15:22:58.461Z,29.06
2017-08-01T15:25:29.854Z,28.95
2017-08-01T15:28:00.962Z,28.94
2017-08-01T15:30:32.282Z,29.19
2017-08-01T15:33:03.396Z,29.22
2017-08-01T15:35:34.440Z,29.13
2017-08-01T15:41:00.889Z,29.16
2017-08-01T15:43:32.143Z,29.31
2017-08-01T15:46:07.650Z,29.43
2017-08-01T15:48:38.873Z,29.39
2017-08-01T15:51:09.977Z,29.30
2017-08-01T15:53:41.365Z,29.13
2017-08-01T15:56:12.490Z,29.04
2017-08-01T15:58:43.607Z,29.04
2017-08-01T16:01:15.570Z,29.13
2017-08-01T16:03:46.644Z,29.35
2017-08-01T16:06:17.778Z,29.38
2017-08-01T16:08:49.261Z,29.28
2017-08-01T16:11:20.394Z,29.18
2017-08-01T16:13:51.494Z,29.16
2017-08-01T16:16:22.943Z,29.43
2017-08-01T16:18:54.057Z,29.50
2017-08-01T16:21:25.171Z,29.31
2017-08-01T16:23:56.570Z,28.86
2017-08-01T16:26:27.755Z,28.70
2017-08-01T16:28:59.210Z,28.45
2017-08-01T16:31:30.508Z,28.02
2017-08-01T16:34:03.380Z,27.91
2017-08-01T16:36:34.844Z,27.89
2017-08-01T16:39:07.297Z,27.99
2017-08-01T16:41:38.677Z,28.08
2017-08-01T16:44:10.115Z,28.27
2017-08-01T16:46:44.897Z,28.49
2017-08-01T16:49:16.815Z,28.62
2017-08-01T16:51:48.035Z,28.73
2017-08-01T16:54:19.456Z,28.76
2017-08-01T16:56:50.563Z,28.70
2017-08-01T16:59:21.930Z,28.70
2017-08-01T17:01:52.985Z,28.69
2017-08-01T17:04:24.140Z,28.67
2017-08-01T17:06:56.585Z,28.71
2017-08-01T17:09:36.967Z,28.72
2017-08-01T17:12:10.211Z,28.77
2017-08-01T17:14:41.258Z,28.71
2017-08-01T17:20:11.706Z,28.39
2017-08-01T17:22:43.974Z,28.28
2017-08-01T17:25:15.697Z,28.11
2017-08-01T17:27:46.955Z,27.94
2017-08-01T17:30:18.308Z,27.85
2017-08-01T17:32:49.710Z,27.53
2017-08-01T17:35:20.799Z,27.44
2017-08-01T17:37:51.956Z,27.30
2017-08-01T17:40:24.425Z,27.25
2017-08-01T17:42:55.598Z,27.16
2017-08-01T17:45:27.051Z,27.19
2017-08-01T17:47:58.167Z,27.23
2017-08-01T17:50:29.306Z,27.29
2017-08-01T17:53:01.333Z,27.31
2017-08-01T17:58:28.442Z,27.20
2017-08-01T18:01:03.214Z,27.11
2017-08-01T18:03:48.205Z,27.07
2017-08-01T18:06:25.155Z,27.08
2017-08-01T18:08:58.245Z,27.10
2017-08-01T18:11:30.377Z,27.16
2017-08-01T18:14:05.252Z,27.21
2017-08-01T18:16:37.261Z,27.24
2017-08-01T18:19:08.498Z,27.29
2017-08-01T18:21:40.017Z,27.30
2017-08-01T18:24:13.168Z,27.28
2017-08-01T18:26:44.436Z,27.27
2017-08-01T18:29:16.492Z,27.35
2017-08-01T18:31:47.735Z,27.38
2017-08-01T18:34:20.943Z,27.43
2017-08-01T18:36:53.048Z,27.42
2017-08-01T18:39:25.709Z,27.40
2017-08-01T18:41:57.142Z,27.42
2017-08-01T18:44:28.973Z,27.38
2017-08-01T18:47:02.320Z,27.23
2017-08-01T18:49:34.742Z,27.06
2017-08-01T18:52:13.396Z,26.99
2017-08-01T18:54:46.207Z,26.93
2017-08-01T18:57:20.083Z,26.82
2017-08-01T18:59:53.074Z,26.84
2017-08-01T19:02:26.483Z,26.89
2017-08-01T19:04:59.264Z,26.82
2017-08-01T19:07:32.281Z,26.74
2017-08-01T19:10:20.146Z,26.77
2017-08-01T19:12:53.505Z,26.74
2017-08-01T19:15:27.144Z,26.67
2017-08-01T19:17:59.308Z,26.62
2017-08-01T19:20:32.955Z,26.62
2017-08-01T19:23:08.692Z,26.61
2017-08-01T19:25:41.170Z,26.74
2017-08-01T19:28:14.748Z,27.00
2017-08-01T19:30:48.092Z,27.12
2017-08-01T19:33:21.741Z,27.21
2017-08-01T19:35:55.161Z,27.22
2017-08-01T19:38:29.820Z,27.04
2017-08-01T19:41:05.268Z,26.77
2017-08-01T19:43:40.512Z,26.57
2017-08-01T19:46:14.319Z,26.41
2017-08-01T19:48:47.091Z,26.19
2017-08-01T19:51:18.806Z,26.01
2017-08-01T19:53:50.947Z,25.94
2017-08-01T19:56:25.545Z,25.92
2017-08-01T19:58:58.675Z,25.85
2017-08-01T20:01:33.182Z,25.87
2017-08-01T20:04:07.859Z,25.81
2017-08-01T20:06:39.048Z,25.76
2017-08-01T20:09:13.560Z,25.70
2017-08-01T20:11:47.704Z,25.71
2017-08-01T20:14:23.384Z,25.72
2017-08-01T20:16:56.609Z,25.69
2017-08-01T20:19:31.642Z,25.66
2017-08-01T20:22:10.103Z,25.58
2017-08-01T20:24:42.225Z,25.59
2017-08-01T20:27:14.806Z,25.46
2017-08-01T20:29:49.074Z,25.42
2017-08-01T20:32:21.173Z,25.37
2017-08-01T20:34:54.683Z,25.32
2017-08-01T20:37:26.914Z,25.20
2017-08-01T20:40:00.057Z,25.23
2017-08-01T20:42:31.986Z,25.31
2017-08-01T20:45:07.417Z,25.41
2017-08-01T20:47:41.046Z,25.46
2017-08-01T20:50:13.748Z,25.51
2017-08-01T20:52:48.109Z,25.61
2017-08-01T20:58:14.606Z,25.62
2017-08-01T21:00:45.752Z,25.48
2017-08-01T21:03:18.498Z,25.35
2017-08-01T21:05:53.816Z,25.20
2017-08-01T21:08:28.086Z,25.13
2017-08-01T21:11:02.194Z,25.02
2017-08-01T21:13:41.784Z,24.93
2017-08-01T21:16:22.646Z,24.88
2017-08-01T21:18:59.054Z,24.92
2017-08-01T21:21:33.789Z,24.86
2017-08-01T21:26:45.162Z,24.82
2017-08-01T21:29:18.871Z,24.81
2017-08-01T21:34:47.761Z,24.79
2017-08-01T21:37:20.406Z,24.78
2017-08-01T21:39:53.402Z,24.79
2017-08-01T21:42:24.536Z,24.77
2017-08-01T21:44:56.358Z,24.66
2017-08-01T21:47:28.104Z,24.67
2017-08-01T21:49:59.834Z,24.68
2017-08-01T21:52:32.414Z,24.68
2017-08-01T21:55:03.880Z,24.73
2017-08-01T21:57:35.372Z,24.73
2017-08-01T22:00:06.535Z,24.74
2017-08-01T22:02:37.787Z,24.77
2017-08-01T22:05:09.200Z,24.79
2017-08-01T22:07:40.338Z,24.79
2017-08-01T22:10:11.410Z,24.80
2017-08-01T22:12:42.783Z,24.81
2017-08-01T22:15:13.863Z,24.79
2017-08-01T22:17:44.929Z,24.78
2017-08-01T22:20:20.287Z,24.69
2017-08-01T22:25:36.093Z,24.60
2017-08-01T22:28:13.256Z,24.64
2017-08-01T22:30:45.547Z,24.58
2017-08-01T22:33:16.933Z,24.51
2017-08-01T22:35:50.852Z,24.55
2017-08-01T22:38:22.700Z,24.57
2017-08-01T22:40:56.549Z,24.56
2017-08-01T22:43:30.516Z,24.58
2017-08-01T22:46:03.838Z,24.52
2017-08-01T22:48:36.559Z,24.54
2017-08-01T22:51:07.779Z,24.53
2017-08-01T22:53:41.359Z,24.52
2017-08-01T22:56:14.695Z,24.50
2017-08-01T22:58:48.812Z,24.47
2017-08-01T23:01:20.053Z,24.41
2017-08-01T23:03:51.401Z,24.33
2017-08-01T23:06:25.843Z,24.21
2017-08-01T23:08:58.908Z,24.21
2017-08-01T23:11:30.517Z,24.19
2017-08-01T23:14:08.630Z,24.18
2017-08-01T23:16:41.572Z,24.17
2017-08-01T23:19:16.882Z,24.11
2017-08-01T23:21:50.644Z,24.08
2017-08-01T23:24:22.897Z,24.05
2017-08-01T23:26:58.751Z,24.02
2017-08-01T23:29:47.918Z,24.00
2017-08-01T23:32:20.939Z,23.99
2017-08-01T23:34:52.032Z,23.96
2017-08-01T23:37:23.603Z,23.95
2017-08-01T23:39:59.016Z,23.94
2017-08-01T23:42:39.748Z,23.92
2017-08-01T23:45:19.559Z,23.90
2017-08-01T23:47:55.324Z,23.87
2017-08-01T23:50:31.453Z,23.75
2017-08-01T23:55:39.842Z,23.76
2017-08-01T23:58:11.415Z,23.73
